Alma, Arkansas
Current Conditions -  °F | °C
As of 6:53 PM on Sunday 23 Nov 2014 (Local Time) from KFSM Reporting Station
Broken Clouds Broken Clouds  
Wind Chill: 17°   Ceiling: 7000
Heat Index: 17°   Visibility: 10mi
Dew Point: 10°   Wind: 18mph
Humidity: 63%   Direction: 270°W
Pressure: 29.37"   Gusts: 36mph
Location:  35.48°N, 94.22°W
Report Text: KFSM 240053Z AUTO 27016G31KT 10SM SCT055 BKN070 17/10 A2937 RMK AO2 PK WND 25031/0045 SLP941 T01720100 TSNO
Loading
Personal Weather Stations






























Interactive Weather Map New forecast layout! Learn more

10-Day Weather Forecast

Advertisements
Track Severe Weather on mobile